createdAt,value
2023-04-11T00:01:35.994Z,41.08
2023-04-11T00:04:02.500Z,41.47
2023-04-11T00:06:28.877Z,41.16
2023-04-11T00:08:55.348Z,41.77
2023-04-11T00:11:21.763Z,42.02
2023-04-11T00:13:48.017Z,42.73
2023-04-11T00:16:14.344Z,42.68
2023-04-11T00:18:40.658Z,42.91
2023-04-11T00:21:06.972Z,43.53
2023-04-11T00:23:33.254Z,43.28
2023-04-11T00:25:59.524Z,44.06
2023-04-11T00:28:25.786Z,43.35
2023-04-11T00:30:52.062Z,43.15
2023-04-11T00:33:18.323Z,43.46
2023-04-11T00:35:44.619Z,43.44
2023-04-11T00:38:10.880Z,42.99
2023-04-11T00:40:37.159Z,43.10
2023-04-11T00:43:03.417Z,42.66
2023-04-11T00:45:29.718Z,42.74
2023-04-11T00:47:56.063Z,42.30
2023-04-11T00:50:22.342Z,41.95
2023-04-11T00:52:48.629Z,41.74
2023-04-11T00:55:14.904Z,42.23
2023-04-11T00:57:41.152Z,41.94
2023-04-11T01:00:07.427Z,42.10
2023-04-11T01:02:33.843Z,41.89
2023-04-11T01:05:00.171Z,41.69
2023-04-11T01:07:26.449Z,42.04
2023-04-11T01:09:52.748Z,42.46
2023-04-11T01:12:19.019Z,42.52
2023-04-11T01:14:45.280Z,43.31
2023-04-11T01:17:11.536Z,42.83
2023-04-11T01:19:37.816Z,43.22
2023-04-11T01:22:04.102Z,43.38
2023-04-11T01:24:30.358Z,43.60
2023-04-11T01:26:56.671Z,43.34
2023-04-11T01:29:22.955Z,43.66
2023-04-11T01:31:49.233Z,43.59
2023-04-11T01:34:15.493Z,43.65
2023-04-11T01:36:41.744Z,44.22
2023-04-11T01:39:08.017Z,44.10
2023-04-11T01:41:34.276Z,44.59
2023-04-11T01:44:00.534Z,44.21
2023-04-11T01:46:26.793Z,44.71
2023-04-11T01:48:53.268Z,44.48
2023-04-11T01:51:19.703Z,44.77
2023-04-11T01:53:46.008Z,44.71
2023-04-11T01:56:12.290Z,45.31
2023-04-11T01:58:38.540Z,45.04
2023-04-11T02:01:04.847Z,44.74
2023-04-11T02:03:31.304Z,45.09
2023-04-11T02:05:57.676Z,45.25
2023-04-11T02:08:23.924Z,45.10
2023-04-11T02:10:50.183Z,45.17
2023-04-11T02:13:16.446Z,46.06
2023-04-11T02:15:42.870Z,47.33
2023-04-11T02:18:09.235Z,47.81
2023-04-11T02:20:35.508Z,47.62
2023-04-11T02:23:01.842Z,47.45
2023-04-11T02:25:28.176Z,47.79
2023-04-11T02:27:54.426Z,47.59
2023-04-11T02:30:20.726Z,48.10
2023-04-11T02:32:47.014Z,48.25
2023-04-11T02:35:13.335Z,48.10
2023-04-11T02:37:39.615Z,48.40
2023-04-11T02:40:05.886Z,48.44
2023-04-11T02:42:32.163Z,48.26
2023-04-11T02:44:58.464Z,48.17
2023-04-11T02:47:24.735Z,48.76
2023-04-11T02:49:51.035Z,48.83
2023-04-11T02:52:17.312Z,49.87
2023-04-11T02:54:43.600Z,50.31
2023-04-11T02:57:09.838Z,51.17
2023-04-11T02:59:36.099Z,52.31
2023-04-11T03:02:02.502Z,52.66
2023-04-11T03:04:28.902Z,53.28
2023-04-11T03:06:55.227Z,54.57
2023-04-11T03:09:21.484Z,55.32
2023-04-11T03:11:47.750Z,54.47
2023-04-11T03:14:14.007Z,55.04
2023-04-11T03:16:40.262Z,55.07
2023-04-11T03:19:06.531Z,55.65
2023-04-11T03:21:32.793Z,55.34
2023-04-11T03:23:59.075Z,55.10
2023-04-11T03:26:25.394Z,55.55
2023-04-11T03:28:51.658Z,55.72
2023-04-11T03:31:17.955Z,55.30
2023-04-11T03:33:44.249Z,56.34
2023-04-11T03:36:10.643Z,55.93
2023-04-11T03:38:37.011Z,55.91
2023-04-11T03:41:03.271Z,56.41
2023-04-11T03:43:29.540Z,56.30
2023-04-11T03:45:55.800Z,56.85
2023-04-11T03:48:22.123Z,56.54
2023-04-11T03:50:48.379Z,56.72
2023-04-11T03:53:14.649Z,56.35
2023-04-11T03:55:40.913Z,56.54
2023-04-11T03:58:07.167Z,57.02
2023-04-11T04:00:33.427Z,56.17
2023-04-11T04:02:59.977Z,57.26
2023-04-11T04:05:26.355Z,56.45
2023-04-11T04:07:55.170Z,56.85
2023-04-11T04:10:22.088Z,56.74
2023-04-11T04:12:48.352Z,56.74
2023-04-11T04:15:14.691Z,57.36
2023-04-11T04:17:41.125Z,56.35
2023-04-11T04:20:07.392Z,57.07
2023-04-11T04:22:33.661Z,56.71
2023-04-11T04:24:59.934Z,57.77
2023-04-11T04:27:26.227Z,57.28
2023-04-11T04:30:03.603Z,57.90
2023-04-11T04:32:30.739Z,58.29
2023-04-11T04:34:57.094Z,57.76
2023-04-11T04:37:23.340Z,58.88
2023-04-11T04:39:49.632Z,58.89
2023-04-11T04:42:15.894Z,59.52
2023-04-11T04:44:42.170Z,58.78
2023-04-11T04:47:08.445Z,59.59
2023-04-11T04:49:34.710Z,59.65
2023-04-11T04:52:00.977Z,60.23
2023-04-11T04:54:27.244Z,60.80
2023-04-11T04:56:53.496Z,60.63
2023-04-11T04:59:19.777Z,61.89
2023-04-11T05:01:46.251Z,61.35
2023-04-11T05:04:12.757Z,61.51
2023-04-11T05:06:39.111Z,60.38
2023-04-11T05:09:05.401Z,61.73
2023-04-11T05:11:31.701Z,62.10
2023-04-11T05:13:58.256Z,62.71
2023-04-11T05:16:24.784Z,62.02
2023-04-11T05:18:51.079Z,62.35
2023-04-11T05:21:17.326Z,62.84
2023-04-11T05:23:43.586Z,63.65
2023-04-11T05:26:09.839Z,63.51
2023-04-11T05:28:36.110Z,63.39
2023-04-11T05:31:02.519Z,64.15
2023-04-11T05:33:28.836Z,65.00
2023-04-11T05:35:55.115Z,64.50
2023-04-11T05:38:21.402Z,64.63
2023-04-11T05:40:47.717Z,65.08
2023-04-11T05:43:13.999Z,65.40
2023-04-11T05:45:40.375Z,64.25
2023-04-11T05:48:06.742Z,63.64
2023-04-11T05:50:33.067Z,63.95
2023-04-11T05:52:59.324Z,62.98
2023-04-11T05:55:25.614Z,62.96
2023-04-11T05:57:51.882Z,62.51
2023-04-11T06:00:18.150Z,62.09
2023-04-11T06:02:44.660Z,62.13
2023-04-11T06:05:11.224Z,61.30
2023-04-11T06:07:37.537Z,61.66
2023-04-11T06:10:03.794Z,60.91
2023-04-11T06:12:30.066Z,60.38
2023-04-11T06:14:56.313Z,60.02
2023-04-11T06:17:22.596Z,60.98
2023-04-11T06:19:48.861Z,59.69
2023-04-11T06:22:15.144Z,60.46
2023-04-11T06:24:41.399Z,59.33
2023-04-11T06:27:07.646Z,59.05
2023-04-11T06:29:33.915Z,59.39
2023-04-11T06:32:00.190Z,59.96
2023-04-11T06:34:26.468Z,59.96
2023-04-11T06:36:52.779Z,60.20
2023-04-11T06:39:19.047Z,59.67
2023-04-11T06:41:45.298Z,60.03
2023-04-11T06:44:11.585Z,59.15
2023-04-11T06:46:37.866Z,59.15
2023-04-11T06:49:04.145Z,59.05
2023-04-11T06:51:30.419Z,60.59
2023-04-11T06:53:56.916Z,61.08
2023-04-11T06:56:23.408Z,61.63
2023-04-11T06:58:49.697Z,61.68
2023-04-11T07:01:16.035Z,61.95
2023-04-11T07:03:42.606Z,62.28
2023-04-11T07:06:09.070Z,61.51
2023-04-11T07:08:35.333Z,61.83
2023-04-11T07:11:01.591Z,62.27
2023-04-11T07:13:27.852Z,62.48
2023-04-11T07:15:54.106Z,62.16
2023-04-11T07:18:20.379Z,61.49
2023-04-11T07:20:46.651Z,60.96
2023-04-11T07:23:12.912Z,61.88
2023-04-11T07:25:39.211Z,61.69
2023-04-11T07:28:05.546Z,61.87
2023-04-11T07:30:31.812Z,62.08
2023-04-11T07:32:58.077Z,62.22
2023-04-11T07:35:24.345Z,61.95
2023-04-11T07:37:50.598Z,63.16
2023-04-11T07:40:16.852Z,62.33
2023-04-11T07:42:43.128Z,62.39
2023-04-11T07:45:09.423Z,62.82
2023-04-11T07:47:35.836Z,62.27
2023-04-11T07:50:02.155Z,63.16
2023-04-11T07:52:28.412Z,62.61
2023-04-11T07:54:54.665Z,61.77
2023-04-11T07:57:20.932Z,61.86
2023-04-11T07:59:47.185Z,61.96
2023-04-11T08:02:13.544Z,60.86
2023-04-11T08:04:39.932Z,61.25
2023-04-11T08:07:06.385Z,61.30
2023-04-11T08:09:32.638Z,61.73
2023-04-11T08:11:58.969Z,61.79
2023-04-11T08:14:25.278Z,61.55
2023-04-11T08:16:52.923Z,60.02
2023-04-11T08:19:19.447Z,60.20
2023-04-11T08:21:45.753Z,59.53
2023-04-11T08:24:12.015Z,59.68
2023-04-11T08:26:38.273Z,59.51
2023-04-11T08:29:04.535Z,60.26
2023-04-11T08:31:30.792Z,60.28
2023-04-11T08:33:59.290Z,60.83
2023-04-11T08:36:27.116Z,60.61
2023-04-11T08:38:53.392Z,60.18
2023-04-11T08:41:19.665Z,59.96
2023-04-11T08:43:45.909Z,59.50
2023-04-11T08:46:12.265Z,59.72
2023-04-11T08:48:38.566Z,59.17
2023-04-11T08:51:04.835Z,59.14
2023-04-11T08:53:31.112Z,59.51
2023-04-11T08:55:57.380Z,59.04
2023-04-11T08:58:23.630Z,59.42
2023-04-11T09:00:50.037Z,58.35
2023-04-11T09:03:16.472Z,58.66
2023-04-11T09:05:43.297Z,57.94
2023-04-11T09:08:09.823Z,57.90
2023-04-11T09:10:36.116Z,57.56
2023-04-11T09:13:03.619Z,57.53
2023-04-11T09:15:29.980Z,56.31
2023-04-11T09:17:58.166Z,56.74
2023-04-11T09:20:26.125Z,57.17
2023-04-11T09:22:52.387Z,56.70
2023-04-11T09:25:18.660Z,56.52
2023-04-11T09:27:44.948Z,56.93
2023-04-11T09:30:11.194Z,55.77
2023-04-11T09:32:37.639Z,55.76
2023-04-11T09:35:03.985Z,56.26
2023-04-11T09:37:30.268Z,54.67
2023-04-11T09:39:56.534Z,55.77
2023-04-11T09:42:22.813Z,55.36
2023-04-11T09:44:49.066Z,55.91
2023-04-11T09:47:15.329Z,55.83
2023-04-11T09:49:41.599Z,56.40
2023-04-11T09:52:07.863Z,55.81
2023-04-11T09:54:34.113Z,55.64
2023-04-11T09:57:00.381Z,55.83
2023-04-11T09:59:26.633Z,56.03
2023-04-11T10:01:53.026Z,57.27
2023-04-11T10:04:19.408Z,56.65
2023-04-11T10:06:45.699Z,56.93
2023-04-11T10:09:12.027Z,56.16
2023-04-11T10:11:38.303Z,56.10
2023-04-11T10:14:04.560Z,55.70
2023-04-11T10:16:30.845Z,55.33
2023-04-11T10:18:57.162Z,55.00
2023-04-11T10:21:23.437Z,55.45
2023-04-11T10:23:49.691Z,54.52
2023-04-11T10:26:15.942Z,55.18
2023-04-11T10:28:42.214Z,54.82
2023-04-11T10:31:08.487Z,54.35
2023-04-11T10:33:34.836Z,54.25
2023-04-11T10:36:01.120Z,53.31
2023-04-11T10:38:27.375Z,54.37
2023-04-11T10:40:53.638Z,54.09
2023-04-11T10:43:19.892Z,53.91
2023-04-11T10:45:46.144Z,54.16
2023-04-11T10:48:12.419Z,55.04
2023-04-11T10:50:38.673Z,54.34
2023-04-11T10:53:04.976Z,54.76
2023-04-11T10:55:31.245Z,54.46
2023-04-11T10:57:57.531Z,55.20
2023-04-11T11:00:23.831Z,54.33
2023-04-11T11:02:50.296Z,54.36
2023-04-11T11:05:16.678Z,54.84
2023-04-11T11:07:42.925Z,54.46
2023-04-11T11:10:09.189Z,54.69
2023-04-11T11:12:35.429Z,54.35
2023-04-11T11:15:01.745Z,55.84
2023-04-11T11:17:28.029Z,55.79
2023-04-11T11:19:54.306Z,54.75
2023-04-11T11:22:20.564Z,54.85
2023-04-11T11:24:46.827Z,54.93
2023-04-11T11:27:13.111Z,55.47
2023-04-11T11:29:39.362Z,54.95
2023-04-11T11:32:05.652Z,55.67
2023-04-11T11:34:31.955Z,55.23
2023-04-11T11:36:58.234Z,55.44
2023-04-11T11:39:24.492Z,54.73
2023-04-11T11:41:50.782Z,54.74
2023-04-11T11:44:17.034Z,55.19
2023-04-11T11:46:43.385Z,54.67
2023-04-11T11:49:09.676Z,54.05
2023-04-11T11:51:35.950Z,54.20
2023-04-11T11:54:02.222Z,54.30
2023-04-11T11:56:28.482Z,53.75
2023-04-11T11:58:54.758Z,54.30
2023-04-11T12:01:21.036Z,54.04
2023-04-11T12:03:47.413Z,53.20
2023-04-11T12:06:13.830Z,52.97
2023-04-11T12:08:40.108Z,52.88
2023-04-11T12:11:06.356Z,53.46
2023-04-11T12:13:32.605Z,53.75
2023-04-11T12:15:58.891Z,53.32
2023-04-11T12:18:25.234Z,53.42
2023-04-11T12:20:51.504Z,53.11
2023-04-11T12:23:17.789Z,53.15
2023-04-11T12:25:44.067Z,53.66
2023-04-11T12:28:10.387Z,53.67
2023-04-11T12:30:36.736Z,53.43
2023-04-11T12:33:03.055Z,53.95
2023-04-11T12:35:29.383Z,52.53
2023-04-11T12:37:55.691Z,52.72
2023-04-11T12:40:21.965Z,52.42
2023-04-11T12:45:17.418Z,51.87
2023-04-11T12:47:43.721Z,51.93
2023-04-11T12:50:10.090Z,52.13
2023-04-11T12:52:36.338Z,51.48
2023-04-11T12:55:02.594Z,51.50
2023-04-11T12:57:29.024Z,51.76
2023-04-11T12:59:55.392Z,51.39
2023-04-11T13:02:21.978Z,52.19
2023-04-11T13:04:51.559Z,52.70
2023-04-11T13:07:17.858Z,52.99
2023-04-11T13:09:44.131Z,53.58
2023-04-11T13:12:10.379Z,52.97
2023-04-11T13:14:36.656Z,53.57
2023-04-11T13:17:02.914Z,53.22
2023-04-11T13:19:29.178Z,54.89
2023-04-11T13:21:55.457Z,53.55
2023-04-11T13:24:21.725Z,54.58
2023-04-11T13:26:47.969Z,54.36
2023-04-11T13:29:14.231Z,55.29
2023-04-11T13:31:40.540Z,53.34
2023-04-11T13:34:06.945Z,53.88
2023-04-11T13:36:34.524Z,53.99
2023-04-11T13:39:00.947Z,53.79
2023-04-11T13:41:27.212Z,54.21
2023-04-11T13:43:53.463Z,54.21
2023-04-11T13:46:19.748Z,53.22
2023-04-11T13:48:46.101Z,54.94
2023-04-11T13:51:12.420Z,54.29
2023-04-11T13:53:38.768Z,53.80
2023-04-11T13:56:05.077Z,53.53
2023-04-11T13:58:31.354Z,53.63
2023-04-11T14:00:57.701Z,53.55
2023-04-11T14:03:24.045Z,53.38
2023-04-11T14:05:50.352Z,52.59
2023-04-11T14:08:16.600Z,53.63
2023-04-11T14:10:42.905Z,55.38
2023-04-11T14:15:37.554Z,56.87
2023-04-11T14:18:03.854Z,57.25
2023-04-11T14:20:30.247Z,57.13
2023-04-11T14:22:56.504Z,57.53
2023-04-11T14:25:22.752Z,56.83
2023-04-11T14:27:51.069Z,57.56
2023-04-11T14:30:19.231Z,57.67
2023-04-11T14:32:47.466Z,56.89
2023-04-11T14:35:13.795Z,56.43
2023-04-11T14:37:40.161Z,56.78
2023-04-11T14:40:06.403Z,56.88
2023-04-11T14:42:32.651Z,57.37
2023-04-11T14:44:58.935Z,57.51
2023-04-11T14:47:25.224Z,57.18
2023-04-11T14:49:51.511Z,57.76
2023-04-11T14:52:17.779Z,55.84
2023-04-11T14:54:44.066Z,53.98
2023-04-11T14:57:10.419Z,53.17
2023-04-11T14:59:36.685Z,52.94
2023-04-11T15:02:03.030Z,51.67
2023-04-11T15:04:29.581Z,50.95
2023-04-11T15:06:55.891Z,50.96
2023-04-11T15:09:22.144Z,51.86
2023-04-11T15:11:48.444Z,50.94
2023-04-11T15:14:14.709Z,51.28
2023-04-11T15:16:40.957Z,51.45
2023-04-11T15:19:07.229Z,51.22
2023-04-11T15:21:33.489Z,51.19
2023-04-11T15:23:59.753Z,50.74
2023-04-11T15:26:26.022Z,50.97
2023-04-11T15:28:52.329Z,49.86
2023-04-11T15:31:18.635Z,49.54
2023-04-11T15:33:44.941Z,49.01
2023-04-11T15:36:11.257Z,49.21
2023-04-11T15:38:37.542Z,49.28
2023-04-11T15:41:03.806Z,48.82
2023-04-11T15:43:30.069Z,49.04
2023-04-11T15:45:56.332Z,48.71
2023-04-11T15:48:22.626Z,48.81
2023-04-11T15:50:48.900Z,48.26
2023-04-11T15:53:15.178Z,47.71
2023-04-11T15:55:41.438Z,47.23
2023-04-11T15:58:07.710Z,47.71
2023-04-11T16:00:33.981Z,47.31
2023-04-11T16:03:00.448Z,47.94
2023-04-11T16:05:26.909Z,47.62
2023-04-11T16:07:53.218Z,47.55
2023-04-11T16:10:19.472Z,47.11
2023-04-11T16:12:45.745Z,47.58
2023-04-11T16:15:12.111Z,47.32
2023-04-11T16:17:38.583Z,47.60
2023-04-11T16:20:04.896Z,48.16
2023-04-11T16:22:31.161Z,47.39
2023-04-11T16:24:57.570Z,47.55
2023-04-11T16:27:23.839Z,47.45
2023-04-11T16:29:50.111Z,47.90
2023-04-11T16:32:16.406Z,47.04
2023-04-11T16:34:42.662Z,47.59
2023-04-11T16:37:08.953Z,46.79
2023-04-11T16:39:35.214Z,46.48
2023-04-11T16:42:01.538Z,46.90
2023-04-11T16:44:27.818Z,47.15
2023-04-11T16:46:54.093Z,47.07
2023-04-11T16:49:20.442Z,46.94
2023-04-11T16:51:46.731Z,47.10
2023-04-11T16:54:12.980Z,47.01
2023-04-11T16:56:39.227Z,46.52
2023-04-11T16:59:05.523Z,46.46
2023-04-11T17:01:31.863Z,47.22
2023-04-11T17:03:58.464Z,46.74
2023-04-11T17:06:24.894Z,46.93
2023-04-11T17:08:51.175Z,46.31
2023-04-11T17:11:17.437Z,46.48
2023-04-11T17:13:43.701Z,45.99
2023-04-11T17:16:10.113Z,46.54
2023-04-11T17:18:36.460Z,46.73
2023-04-11T17:21:02.779Z,46.46
2023-04-11T17:23:41.257Z,45.85
2023-04-11T17:26:09.119Z,46.75
2023-04-11T17:28:35.387Z,47.06
2023-04-11T17:31:01.713Z,47.26
2023-04-11T17:33:27.993Z,46.35
2023-04-11T17:35:54.299Z,47.29
2023-04-11T17:38:20.563Z,47.01
2023-04-11T17:40:46.844Z,47.29
2023-04-11T17:43:13.115Z,47.23
2023-04-11T17:45:39.380Z,47.90
2023-04-11T17:48:05.644Z,47.45
2023-04-11T17:50:31.920Z,47.69
2023-04-11T17:52:58.233Z,47.60
2023-04-11T17:55:24.510Z,48.10
2023-04-11T17:57:50.767Z,47.87
2023-04-11T18:00:17.025Z,48.06
2023-04-11T18:02:43.480Z,47.81
2023-04-11T18:05:22.423Z,48.33
2023-04-11T18:07:50.478Z,48.40
2023-04-11T18:10:16.769Z,48.71
2023-04-11T18:12:43.080Z,49.19
2023-04-11T18:15:09.377Z,49.16
2023-04-11T18:17:35.681Z,49.79
2023-04-11T18:20:02.072Z,49.46
2023-04-11T18:22:28.405Z,49.08
2023-04-11T18:24:54.685Z,48.40
2023-04-11T18:27:21.016Z,49.03
2023-04-11T18:29:47.323Z,48.97
2023-04-11T18:32:20.292Z,48.94
2023-04-11T18:34:47.773Z,49.10
2023-04-11T18:37:14.106Z,49.98
2023-04-11T18:39:40.444Z,50.34
2023-04-11T18:42:06.738Z,50.16
2023-04-11T18:44:33.970Z,50.86
2023-04-11T18:47:05.223Z,51.25
2023-04-11T18:49:34.597Z,51.32
2023-04-11T18:52:00.935Z,51.11
2023-04-11T18:54:27.189Z,51.38
2023-04-11T18:56:54.291Z,50.45
2023-04-11T18:59:24.241Z,51.01
2023-04-11T19:01:51.555Z,51.01
2023-04-11T19:04:18.070Z,51.09
2023-04-11T19:06:44.410Z,50.84
2023-04-11T19:09:10.668Z,51.13
2023-04-11T19:11:36.933Z,51.80
2023-04-11T19:14:03.180Z,52.35
2023-04-11T19:16:29.510Z,52.41
2023-04-11T19:18:55.829Z,52.83
2023-04-11T19:21:22.143Z,53.73
2023-04-11T19:23:48.438Z,52.91
2023-04-11T19:26:14.810Z,53.16
2023-04-11T19:28:41.068Z,53.29
2023-04-11T19:31:07.605Z,54.11
2023-04-11T19:33:33.872Z,53.86
2023-04-11T19:36:00.240Z,53.69
2023-04-11T19:38:26.591Z,54.04
2023-04-11T19:40:52.918Z,54.81
2023-04-11T19:43:19.199Z,54.46
2023-04-11T19:45:45.513Z,53.88
2023-04-11T19:48:11.841Z,54.27
2023-04-11T19:50:38.155Z,54.80
2023-04-11T19:53:04.414Z,55.33
2023-04-11T19:55:30.693Z,55.27
2023-04-11T19:57:56.980Z,54.98
2023-04-11T20:00:23.236Z,54.17
2023-04-11T20:02:49.704Z,54.71
2023-04-11T20:05:16.139Z,54.66
2023-04-11T20:07:42.565Z,54.52
2023-04-11T20:10:08.887Z,54.36
2023-04-11T20:12:35.144Z,54.37
2023-04-11T20:15:01.505Z,54.65
2023-04-11T20:17:27.782Z,54.52
2023-04-11T20:19:54.075Z,54.55
2023-04-11T20:22:20.380Z,54.92
2023-04-11T20:24:46.650Z,54.30
2023-04-11T20:27:12.959Z,54.61
2023-04-11T20:29:39.198Z,54.86
2023-04-11T20:32:05.525Z,55.04
2023-04-11T20:34:31.874Z,54.67
2023-04-11T20:36:58.154Z,54.15
2023-04-11T20:39:24.425Z,54.73
2023-04-11T20:41:50.923Z,54.56
2023-04-11T20:44:17.241Z,55.03
2023-04-11T20:46:43.615Z,55.16
2023-04-11T20:49:10.006Z,55.10
2023-04-11T20:51:36.294Z,55.13
2023-04-11T20:54:02.580Z,54.57
2023-04-11T20:56:28.850Z,54.53
2023-04-11T21:01:06.403Z,55.09
2023-04-11T21:03:32.767Z,54.83
2023-04-11T21:05:59.166Z,54.48
2023-04-11T21:08:25.444Z,55.21
2023-04-11T21:10:51.721Z,55.28
2023-04-11T21:13:17.984Z,55.18
2023-04-11T21:15:44.360Z,55.30
2023-04-11T21:18:10.642Z,55.90
2023-04-11T21:20:36.943Z,55.58
2023-04-11T21:23:03.215Z,56.12
2023-04-11T21:25:29.506Z,55.64
2023-04-11T21:27:55.773Z,56.49
2023-04-11T21:30:22.052Z,55.84
2023-04-11T21:32:48.373Z,55.72
2023-04-11T21:35:14.662Z,55.83
2023-04-11T21:37:40.909Z,55.74
2023-04-11T21:40:07.171Z,55.54
2023-04-11T21:42:33.438Z,55.98
2023-04-11T21:44:59.698Z,56.41
2023-04-11T21:47:25.972Z,55.82
2023-04-11T21:49:52.269Z,55.38
2023-04-11T21:52:18.524Z,56.50
2023-04-11T21:54:44.780Z,56.00
2023-04-11T21:57:11.056Z,55.96
2023-04-11T21:59:37.312Z,55.77
2023-04-11T22:02:03.725Z,56.42
2023-04-11T22:04:30.116Z,56.00
2023-04-11T22:06:56.448Z,56.45
2023-04-11T22:09:22.730Z,56.02
2023-04-11T22:11:48.999Z,56.00
2023-04-11T22:14:15.261Z,55.79
2023-04-11T22:16:41.567Z,56.30
2023-04-11T22:19:07.869Z,56.12
2023-04-11T22:21:34.153Z,56.89
2023-04-11T22:24:00.676Z,57.05
2023-04-11T22:26:27.029Z,57.79
2023-04-11T22:28:53.317Z,57.30
2023-04-11T22:31:19.610Z,57.21
2023-04-11T22:33:45.905Z,56.96
2023-04-11T22:36:12.166Z,56.96
2023-04-11T22:38:38.439Z,57.65
2023-04-11T22:41:04.703Z,57.30
2023-04-11T22:43:30.988Z,57.14
2023-04-11T22:45:57.307Z,57.65
2023-04-11T22:48:23.617Z,56.93
2023-04-11T22:50:49.890Z,57.15
2023-04-11T22:53:16.140Z,56.91
2023-04-11T22:55:42.430Z,57.02
2023-04-11T22:58:08.736Z,57.75
2023-04-11T23:00:34.987Z,56.58
2023-04-11T23:03:01.280Z,57.22
2023-04-11T23:05:27.595Z,57.26
2023-04-11T23:07:53.866Z,57.70
2023-04-11T23:10:20.153Z,57.42
2023-04-11T23:12:46.407Z,57.51
2023-04-11T23:15:12.671Z,56.73
2023-04-11T23:17:38.958Z,56.71
2023-04-11T23:20:05.244Z,57.73
2023-04-11T23:22:31.522Z,57.37
2023-04-11T23:24:57.786Z,57.28
2023-04-11T23:27:24.056Z,57.68
2023-04-11T23:29:50.334Z,57.54
2023-04-11T23:32:16.591Z,58.00
2023-04-11T23:34:42.847Z,57.76
2023-04-11T23:37:09.106Z,57.82
2023-04-11T23:39:35.364Z,57.34
2023-04-11T23:42:01.653Z,58.31
2023-04-11T23:44:28.008Z,57.88
2023-04-11T23:46:54.256Z,58.13
2023-04-11T23:49:20.511Z,57.69
2023-04-11T23:51:46.770Z,57.58
2023-04-11T23:54:13.046Z,58.22
2023-04-11T23:56:39.324Z,57.94
2023-04-11T23:59:05.584Z,58.19
